sensor_id;sensor_type;location;lat;lon;timestamp;temperature;humidity
4509;DHT22;2267;48.816;9.230;2023-02-24T00:01:35;12.20;99.90
4509;DHT22;2267;48.816;9.230;2023-02-24T00:04:11;12.20;99.90
4509;DHT22;2267;48.816;9.230;2023-02-24T00:06:40;12.20;99.90
4509;DHT22;2267;48.816;9.230;2023-02-24T00:09:16;12.20;99.90
4509;DHT22;2267;48.816;9.230;2023-02-24T00:12:09;12.20;99.90
4509;DHT22;2267;48.816;9.230;2023-02-24T00:14:38;12.20;99.90
4509;DHT22;2267;48.816;9.230;2023-02-24T00:17:07;12.20;99.90
4509;DHT22;2267;48.816;9.230;2023-02-24T00:19:34;12.20;99.90
4509;DHT22;2267;48.816;9.230;2023-02-24T00:22:03;12.20;99.90
4509;DHT22;2267;48.816;9.230;2023-02-24T00:24:31;12.20;99.90
4509;DHT22;2267;48.816;9.230;2023-02-24T00:27:01;12.20;99.90
4509;DHT22;2267;48.816;9.230;2023-02-24T00:29:33;12.20;99.90
4509;DHT22;2267;48.816;9.230;2023-02-24T00:31:59;12.20;99.90
4509;DHT22;2267;48.816;9.230;2023-02-24T00:34:29;12.20;99.90
4509;DHT22;2267;48.816;9.230;2023-02-24T00:36:57;12.20;99.90
4509;DHT22;2267;48.816;9.230;2023-02-24T00:39:24;12.20;99.90
4509;DHT22;2267;48.816;9.230;2023-02-24T00:41:59;12.20;99.90
4509;DHT22;2267;48.816;9.230;2023-02-24T00:44:43;12.20;99.90
4509;DHT22;2267;48.816;9.230;2023-02-24T00:47:10;12.20;99.90
4509;DHT22;2267;48.816;9.230;2023-02-24T00:49:38;12.20;99.90
4509;DHT22;2267;48.816;9.230;2023-02-24T00:52:10;12.20;99.90
4509;DHT22;2267;48.816;9.230;2023-02-24T00:54:43;12.20;99.90
4509;DHT22;2267;48.816;9.230;2023-02-24T00:57:10;12.20;99.90
4509;DHT22;2267;48.816;9.230;2023-02-24T00:59:37;12.20;99.90
4509;DHT22;2267;48.816;9.230;2023-02-24T01:02:05;12.20;99.90
4509;DHT22;2267;48.816;9.230;2023-02-24T01:04:33;12.20;99.90
4509;DHT22;2267;48.816;9.230;2023-02-24T01:07:00;12.20;99.90
4509;DHT22;2267;48.816;9.230;2023-02-24T01:09:29;12.20;99.90
4509;DHT22;2267;48.816;9.230;2023-02-24T01:11:57;12.20;99.90
4509;DHT22;2267;48.816;9.230;2023-02-24T01:14:44;12.20;99.90
4509;DHT22;2267;48.816;9.230;2023-02-24T01:17:14;12.20;99.90
4509;DHT22;2267;48.816;9.230;2023-02-24T01:19:41;12.20;99.90
4509;DHT22;2267;48.816;9.230;2023-02-24T01:22:13;12.10;99.90
4509;DHT22;2267;48.816;9.230;2023-02-24T01:24:42;12.10;99.90
4509;DHT22;2267;48.816;9.230;2023-02-24T01:27:14;12.10;99.90
4509;DHT22;2267;48.816;9.230;2023-02-24T01:29:44;12.10;99.90
4509;DHT22;2267;48.816;9.230;2023-02-24T01:32:19;12.10;99.90
4509;DHT22;2267;48.816;9.230;2023-02-24T01:34:50;12.10;99.90
4509;DHT22;2267;48.816;9.230;2023-02-24T01:37:18;12.10;99.90
4509;DHT22;2267;48.816;9.230;2023-02-24T01:39:46;12.10;99.90
4509;DHT22;2267;48.816;9.230;2023-02-24T01:42:16;12.10;99.90
4509;DHT22;2267;48.816;9.230;2023-02-24T01:47:13;12.10;99.90
4509;DHT22;2267;48.816;9.230;2023-02-24T01:49:43;12.00;99.90
4509;DHT22;2267;48.816;9.230;2023-02-24T01:52:22;12.00;99.90
4509;DHT22;2267;48.816;9.230;2023-02-24T01:57:23;12.00;99.90
4509;DHT22;2267;48.816;9.230;2023-02-24T01:59:53;12.10;99.90
4509;DHT22;2267;48.816;9.230;2023-02-24T02:02:27;12.00;99.90
4509;DHT22;2267;48.816;9.230;2023-02-24T02:05:03;12.00;99.90
4509;DHT22;2267;48.816;9.230;2023-02-24T02:07:31;12.00;99.90
4509;DHT22;2267;48.816;9.230;2023-02-24T02:10:00;12.00;99.90
4509;DHT22;2267;48.816;9.230;2023-02-24T02:12:32;12.00;99.90
4509;DHT22;2267;48.816;9.230;2023-02-24T02:15:03;12.00;99.90
4509;DHT22;2267;48.816;9.230;2023-02-24T02:28:48;11.90;99.90
4509;DHT22;2267;48.816;9.230;2023-02-24T02:37:12;11.90;99.90
4509;DHT22;2267;48.816;9.230;2023-02-24T02:39:55;12.00;99.90
4509;DHT22;2267;48.816;9.230;2023-02-24T02:42:32;11.90;99.90
4509;DHT22;2267;48.816;9.230;2023-02-24T02:45:21;11.90;99.90
4509;DHT22;2267;48.816;9.230;2023-02-24T02:47:53;11.90;99.90
4509;DHT22;2267;48.816;9.230;2023-02-24T02:50:28;11.90;99.90
4509;DHT22;2267;48.816;9.230;2023-02-24T02:53:11;11.90;99.90
4509;DHT22;2267;48.816;9.230;2023-02-24T02:55:48;11.80;99.90
4509;DHT22;2267;48.816;9.230;2023-02-24T02:58:23;11.80;99.90
4509;DHT22;2267;48.816;9.230;2023-02-24T03:00:55;11.80;99.90
4509;DHT22;2267;48.816;9.230;2023-02-24T03:03:45;11.80;99.90
4509;DHT22;2267;48.816;9.230;2023-02-24T03:06:22;11.90;99.90
4509;DHT22;2267;48.816;9.230;2023-02-24T03:09:03;11.80;99.90
4509;DHT22;2267;48.816;9.230;2023-02-24T03:12:03;11.80;99.90
4509;DHT22;2267;48.816;9.230;2023-02-24T03:14:36;11.80;99.90
4509;DHT22;2267;48.816;9.230;2023-02-24T03:17:14;11.80;99.90
4509;DHT22;2267;48.816;9.230;2023-02-24T03:19:43;11.80;99.90
4509;DHT22;2267;48.816;9.230;2023-02-24T03:22:35;11.80;99.90
4509;DHT22;2267;48.816;9.230;2023-02-24T03:25:06;11.80;99.90
4509;DHT22;2267;48.816;9.230;2023-02-24T03:27:44;11.70;99.90
4509;DHT22;2267;48.816;9.230;2023-02-24T03:30:19;11.70;99.90
4509;DHT22;2267;48.816;9.230;2023-02-24T03:33:04;11.70;99.90
4509;DHT22;2267;48.816;9.230;2023-02-24T03:35:40;11.70;99.90
4509;DHT22;2267;48.816;9.230;2023-02-24T03:38:11;11.70;99.90
4509;DHT22;2267;48.816;9.230;2023-02-24T03:40:39;11.70;99.90
4509;DHT22;2267;48.816;9.230;2023-02-24T03:43:20;11.70;99.90
4509;DHT22;2267;48.816;9.230;2023-02-24T03:45:48;11.70;99.90
4509;DHT22;2267;48.816;9.230;2023-02-24T03:48:15;11.70;99.90
4509;DHT22;2267;48.816;9.230;2023-02-24T03:50:43;11.70;99.90
4509;DHT22;2267;48.816;9.230;2023-02-24T03:53:30;11.70;99.90
4509;DHT22;2267;48.816;9.230;2023-02-24T04:04:07;11.70;99.90
4509;DHT22;2267;48.816;9.230;2023-02-24T04:09:17;11.70;99.90
4509;DHT22;2267;48.816;9.230;2023-02-24T04:11:54;11.70;99.90
4509;DHT22;2267;48.816;9.230;2023-02-24T04:14:28;11.70;99.90
4509;DHT22;2267;48.816;9.230;2023-02-24T04:17:05;11.70;99.90
4509;DHT22;2267;48.816;9.230;2023-02-24T04:19:38;11.70;99.90
4509;DHT22;2267;48.816;9.230;2023-02-24T04:22:07;11.60;99.90
4509;DHT22;2267;48.816;9.230;2023-02-24T04:24:37;11.60;99.90
4509;DHT22;2267;48.816;9.230;2023-02-24T04:27:08;11.60;99.90
4509;DHT22;2267;48.816;9.230;2023-02-24T04:29:43;11.60;99.90
4509;DHT22;2267;48.816;9.230;2023-02-24T04:32:14;11.60;99.90
4509;DHT22;2267;48.816;9.230;2023-02-24T04:34:43;11.60;99.90
4509;DHT22;2267;48.816;9.230;2023-02-24T04:37:11;11.50;99.90
4509;DHT22;2267;48.816;9.230;2023-02-24T04:39:37;11.60;99.90
4509;DHT22;2267;48.816;9.230;2023-02-24T04:42:05;11.60;99.90
4509;DHT22;2267;48.816;9.230;2023-02-24T04:44:32;11.50;99.90
4509;DHT22;2267;48.816;9.230;2023-02-24T04:46:59;11.60;99.90
4509;DHT22;2267;48.816;9.230;2023-02-24T04:49:26;11.60;99.90
4509;DHT22;2267;48.816;9.230;2023-02-24T04:51:53;11.50;99.90
4509;DHT22;2267;48.816;9.230;2023-02-24T04:54:20;11.50;99.90
4509;DHT22;2267;48.816;9.230;2023-02-24T04:56:47;11.50;99.90
4509;DHT22;2267;48.816;9.230;2023-02-24T04:59:20;11.50;99.90
4509;DHT22;2267;48.816;9.230;2023-02-24T05:01:47;11.50;99.90
4509;DHT22;2267;48.816;9.230;2023-02-24T05:04:18;11.50;99.90
4509;DHT22;2267;48.816;9.230;2023-02-24T05:06:45;11.50;99.90
4509;DHT22;2267;48.816;9.230;2023-02-24T05:09:14;11.50;99.90
4509;DHT22;2267;48.816;9.230;2023-02-24T05:11:50;11.50;99.90
4509;DHT22;2267;48.816;9.230;2023-02-24T05:14:19;11.50;99.90
4509;DHT22;2267;48.816;9.230;2023-02-24T05:16:47;11.50;99.90
4509;DHT22;2267;48.816;9.230;2023-02-24T05:19:17;11.50;99.90
4509;DHT22;2267;48.816;9.230;2023-02-24T05:22:03;11.50;99.90
4509;DHT22;2267;48.816;9.230;2023-02-24T05:24:33;11.50;99.90
4509;DHT22;2267;48.816;9.230;2023-02-24T05:27:00;11.40;99.90
4509;DHT22;2267;48.816;9.230;2023-02-24T05:29:32;11.40;99.90
4509;DHT22;2267;48.816;9.230;2023-02-24T05:32:00;11.40;99.90
4509;DHT22;2267;48.816;9.230;2023-02-24T05:34:29;11.40;99.90
4509;DHT22;2267;48.816;9.230;2023-02-24T05:36:58;11.40;99.90
4509;DHT22;2267;48.816;9.230;2023-02-24T05:39:25;11.40;99.90
4509;DHT22;2267;48.816;9.230;2023-02-24T05:41:53;11.40;99.90
4509;DHT22;2267;48.816;9.230;2023-02-24T05:44:21;11.40;99.90
4509;DHT22;2267;48.816;9.230;2023-02-24T05:46:50;11.40;99.90
4509;DHT22;2267;48.816;9.230;2023-02-24T05:49:27;11.40;99.90
4509;DHT22;2267;48.816;9.230;2023-02-24T05:51:58;11.40;99.90
4509;DHT22;2267;48.816;9.230;2023-02-24T05:54:28;11.40;99.90
4509;DHT22;2267;48.816;9.230;2023-02-24T05:57:05;11.40;99.90
4509;DHT22;2267;48.816;9.230;2023-02-24T05:59:33;11.40;99.90
4509;DHT22;2267;48.816;9.230;2023-02-24T06:02:02;11.40;99.90
4509;DHT22;2267;48.816;9.230;2023-02-24T06:04:36;11.40;99.90
4509;DHT22;2267;48.816;9.230;2023-02-24T06:07:12;11.40;99.90
4509;DHT22;2267;48.816;9.230;2023-02-24T06:09:40;11.30;99.90
4509;DHT22;2267;48.816;9.230;2023-02-24T06:12:11;11.40;99.90
4509;DHT22;2267;48.816;9.230;2023-02-24T06:14:40;11.30;99.90
4509;DHT22;2267;48.816;9.230;2023-02-24T06:17:08;11.30;99.90
4509;DHT22;2267;48.816;9.230;2023-02-24T06:19:35;11.40;99.90
4509;DHT22;2267;48.816;9.230;2023-02-24T06:22:01;11.30;99.90
4509;DHT22;2267;48.816;9.230;2023-02-24T06:24:31;11.30;99.90
4509;DHT22;2267;48.816;9.230;2023-02-24T06:26:58;11.30;99.90
4509;DHT22;2267;48.816;9.230;2023-02-24T06:29:36;11.30;99.90
4509;DHT22;2267;48.816;9.230;2023-02-24T06:32:03;11.30;99.90
4509;DHT22;2267;48.816;9.230;2023-02-24T06:34:37;11.40;99.90
4509;DHT22;2267;48.816;9.230;2023-02-24T06:37:05;11.40;99.90
4509;DHT22;2267;48.816;9.230;2023-02-24T06:39:33;11.40;99.90
4509;DHT22;2267;48.816;9.230;2023-02-24T06:42:03;11.40;99.90
4509;DHT22;2267;48.816;9.230;2023-02-24T06:44:31;11.30;99.90
4509;DHT22;2267;48.816;9.230;2023-02-24T06:46:59;11.30;99.90
4509;DHT22;2267;48.816;9.230;2023-02-24T06:49:26;11.30;99.90
4509;DHT22;2267;48.816;9.230;2023-02-24T06:51:54;11.30;99.90
4509;DHT22;2267;48.816;9.230;2023-02-24T06:54:21;11.30;99.90
4509;DHT22;2267;48.816;9.230;2023-02-24T06:56:49;11.30;99.90
4509;DHT22;2267;48.816;9.230;2023-02-24T06:59:15;11.30;99.90
4509;DHT22;2267;48.816;9.230;2023-02-24T07:01:48;11.30;99.90
4509;DHT22;2267;48.816;9.230;2023-02-24T07:04:15;11.30;99.90
4509;DHT22;2267;48.816;9.230;2023-02-24T07:06:49;11.30;99.90
4509;DHT22;2267;48.816;9.230;2023-02-24T07:09:21;11.30;99.90
4509;DHT22;2267;48.816;9.230;2023-02-24T07:11:49;11.30;99.90
4509;DHT22;2267;48.816;9.230;2023-02-24T07:14:26;11.30;99.90
4509;DHT22;2267;48.816;9.230;2023-02-24T07:16:54;11.30;99.90
4509;DHT22;2267;48.816;9.230;2023-02-24T07:19:26;11.30;99.90
4509;DHT22;2267;48.816;9.230;2023-02-24T07:21:59;11.30;99.90
4509;DHT22;2267;48.816;9.230;2023-02-24T07:24:30;11.30;99.90
4509;DHT22;2267;48.816;9.230;2023-02-24T07:27:04;11.30;99.90
4509;DHT22;2267;48.816;9.230;2023-02-24T07:29:32;11.30;99.90
4509;DHT22;2267;48.816;9.230;2023-02-24T07:32:01;11.30;99.90
4509;DHT22;2267;48.816;9.230;2023-02-24T07:34:30;11.30;99.90
4509;DHT22;2267;48.816;9.230;2023-02-24T07:36:57;11.30;99.90
4509;DHT22;2267;48.816;9.230;2023-02-24T07:39:24;11.30;99.90
4509;DHT22;2267;48.816;9.230;2023-02-24T07:41:52;11.30;99.90
4509;DHT22;2267;48.816;9.230;2023-02-24T07:44:22;11.30;99.90
4509;DHT22;2267;48.816;9.230;2023-02-24T07:46:50;11.30;99.90
4509;DHT22;2267;48.816;9.230;2023-02-24T07:49:22;11.30;99.90
4509;DHT22;2267;48.816;9.230;2023-02-24T07:51:52;11.30;99.90
4509;DHT22;2267;48.816;9.230;2023-02-24T07:54:24;11.30;99.90
4509;DHT22;2267;48.816;9.230;2023-02-24T07:56:52;11.30;99.90
4509;DHT22;2267;48.816;9.230;2023-02-24T07:59:24;11.30;99.90
4509;DHT22;2267;48.816;9.230;2023-02-24T08:01:52;11.30;99.90
4509;DHT22;2267;48.816;9.230;2023-02-24T08:04:29;11.30;99.90
4509;DHT22;2267;48.816;9.230;2023-02-24T08:06:56;11.30;99.90
4509;DHT22;2267;48.816;9.230;2023-02-24T08:09:30;11.30;99.90
4509;DHT22;2267;48.816;9.230;2023-02-24T08:12:11;11.30;99.90
4509;DHT22;2267;48.816;9.230;2023-02-24T08:14:44;11.30;99.90
4509;DHT22;2267;48.816;9.230;2023-02-24T08:17:24;11.30;99.90
4509;DHT22;2267;48.816;9.230;2023-02-24T08:19:54;11.30;99.90
4509;DHT22;2267;48.816;9.230;2023-02-24T08:22:42;11.30;99.90
4509;DHT22;2267;48.816;9.230;2023-02-24T08:25:10;11.30;99.90
4509;DHT22;2267;48.816;9.230;2023-02-24T08:27:46;11.30;99.90
4509;DHT22;2267;48.816;9.230;2023-02-24T08:30:34;11.30;99.90
4509;DHT22;2267;48.816;9.230;2023-02-24T08:33:07;11.40;99.90
4509;DHT22;2267;48.816;9.230;2023-02-24T08:35:37;11.40;99.90
4509;DHT22;2267;48.816;9.230;2023-02-24T08:38:05;11.40;99.90
4509;DHT22;2267;48.816;9.230;2023-02-24T08:40:37;11.40;99.90
4509;DHT22;2267;48.816;9.230;2023-02-24T08:46:00;11.40;99.90
4509;DHT22;2267;48.816;9.230;2023-02-24T08:48:34;11.40;99.90
4509;DHT22;2267;48.816;9.230;2023-02-24T08:53:42;11.50;99.90
4509;DHT22;2267;48.816;9.230;2023-02-24T08:56:12;11.50;99.90
4509;DHT22;2267;48.816;9.230;2023-02-24T08:58:42;11.60;99.90
4509;DHT22;2267;48.816;9.230;2023-02-24T09:01:20;11.60;99.90
4509;DHT22;2267;48.816;9.230;2023-02-24T09:03:53;11.60;99.90
4509;DHT22;2267;48.816;9.230;2023-02-24T09:09:12;11.60;99.90
4509;DHT22;2267;48.816;9.230;2023-02-24T09:11:58;11.60;99.90
4509;DHT22;2267;48.816;9.230;2023-02-24T09:14:29;11.60;99.90
4509;DHT22;2267;48.816;9.230;2023-02-24T09:17:04;11.70;99.90
4509;DHT22;2267;48.816;9.230;2023-02-24T09:19:38;11.70;99.90
4509;DHT22;2267;48.816;9.230;2023-02-24T09:22:19;11.70;99.90
4509;DHT22;2267;48.816;9.230;2023-02-24T09:25:08;11.70;99.90
4509;DHT22;2267;48.816;9.230;2023-02-24T09:28:05;11.70;99.90
4509;DHT22;2267;48.816;9.230;2023-02-24T09:30:38;11.70;99.90
4509;DHT22;2267;48.816;9.230;2023-02-24T09:33:28;11.70;99.90
4509;DHT22;2267;48.816;9.230;2023-02-24T09:36:04;11.70;99.90
4509;DHT22;2267;48.816;9.230;2023-02-24T09:38:49;11.70;99.90
4509;DHT22;2267;48.816;9.230;2023-02-24T09:41:46;11.70;99.90
4509;DHT22;2267;48.816;9.230;2023-02-24T09:44:42;11.70;99.90
4509;DHT22;2267;48.816;9.230;2023-02-24T09:47:21;11.80;99.90
4509;DHT22;2267;48.816;9.230;2023-02-24T09:53:10;11.80;99.90
4509;DHT22;2267;48.816;9.230;2023-02-24T10:01:49;11.90;99.90
4509;DHT22;2267;48.816;9.230;2023-02-24T10:07:19;12.00;99.90
4509;DHT22;2267;48.816;9.230;2023-02-24T10:10:12;12.00;99.90
4509;DHT22;2267;48.816;9.230;2023-02-24T10:12:51;12.10;99.90
4509;DHT22;2267;48.816;9.230;2023-02-24T10:15:26;12.10;99.90
4509;DHT22;2267;48.816;9.230;2023-02-24T10:18:49;12.20;99.90
4509;DHT22;2267;48.816;9.230;2023-02-24T10:21:48;12.20;99.90
4509;DHT22;2267;48.816;9.230;2023-02-24T10:24:50;12.20;99.90
4509;DHT22;2267;48.816;9.230;2023-02-24T10:27:36;12.20;99.90
4509;DHT22;2267;48.816;9.230;2023-02-24T10:33:33;12.20;99.90
4509;DHT22;2267;48.816;9.230;2023-02-24T10:36:06;12.20;99.90
4509;DHT22;2267;48.816;9.230;2023-02-24T10:38:38;12.10;99.90
4509;DHT22;2267;48.816;9.230;2023-02-24T10:41:14;12.10;99.90
4509;DHT22;2267;48.816;9.230;2023-02-24T10:43:55;12.10;99.90
4509;DHT22;2267;48.816;9.230;2023-02-24T10:46:28;12.10;99.90
4509;DHT22;2267;48.816;9.230;2023-02-24T10:49:10;12.10;99.90
4509;DHT22;2267;48.816;9.230;2023-02-24T10:51:47;12.10;99.90
4509;DHT22;2267;48.816;9.230;2023-02-24T10:54:23;12.10;99.90
4509;DHT22;2267;48.816;9.230;2023-02-24T10:57:12;12.10;99.90
4509;DHT22;2267;48.816;9.230;2023-02-24T11:00:15;12.10;99.90
4509;DHT22;2267;48.816;9.230;2023-02-24T11:03:16;12.10;99.90
4509;DHT22;2267;48.816;9.230;2023-02-24T11:06:02;12.10;99.90
4509;DHT22;2267;48.816;9.230;2023-02-24T11:08:30;12.00;99.90
4509;DHT22;2267;48.816;9.230;2023-02-24T11:11:25;12.00;99.90
4509;DHT22;2267;48.816;9.230;2023-02-24T11:13:58;12.00;99.90
4509;DHT22;2267;48.816;9.230;2023-02-24T11:16:49;12.00;99.90
4509;DHT22;2267;48.816;9.230;2023-02-24T11:19:46;12.00;99.90
4509;DHT22;2267;48.816;9.230;2023-02-24T11:22:36;12.00;99.90
4509;DHT22;2267;48.816;9.230;2023-02-24T11:25:33;12.00;99.90
4509;DHT22;2267;48.816;9.230;2023-02-24T11:28:02;12.00;99.90
4509;DHT22;2267;48.816;9.230;2023-02-24T11:30:36;12.00;99.90
4509;DHT22;2267;48.816;9.230;2023-02-24T11:34:05;12.00;99.90
4509;DHT22;2267;48.816;9.230;2023-02-24T11:36:19;12.00;99.90
4509;DHT22;2267;48.816;9.230;2023-02-24T11:41:50;12.00;99.90
4509;DHT22;2267;48.816;9.230;2023-02-24T11:44:45;12.00;99.90
4509;DHT22;2267;48.816;9.230;2023-02-24T11:47:16;12.00;99.90
4509;DHT22;2267;48.816;9.230;2023-02-24T11:50:43;12.00;99.90
4509;DHT22;2267;48.816;9.230;2023-02-24T11:52:43;12.00;99.90
4509;DHT22;2267;48.816;9.230;2023-02-24T11:55:37;12.00;99.90
4509;DHT22;2267;48.816;9.230;2023-02-24T12:10:02;12.00;99.90
4509;DHT22;2267;48.816;9.230;2023-02-24T12:12:55;12.00;99.90
4509;DHT22;2267;48.816;9.230;2023-02-24T12:15:48;12.00;99.90
4509;DHT22;2267;48.816;9.230;2023-02-24T12:18:25;12.10;99.90
4509;DHT22;2267;48.816;9.230;2023-02-24T12:21:02;12.10;99.90
4509;DHT22;2267;48.816;9.230;2023-02-24T12:23:39;12.10;99.90
4509;DHT22;2267;48.816;9.230;2023-02-24T12:26:23;12.20;99.90
4509;DHT22;2267;48.816;9.230;2023-02-24T12:31:56;12.30;99.90
4509;DHT22;2267;48.816;9.230;2023-02-24T12:45:14;12.60;99.90
4509;DHT22;2267;48.816;9.230;2023-02-24T12:50:22;12.90;99.90
4509;DHT22;2267;48.816;9.230;2023-02-24T12:53:16;13.10;99.90
4509;DHT22;2267;48.816;9.230;2023-02-24T12:58:38;13.40;99.90
4509;DHT22;2267;48.816;9.230;2023-02-24T13:07:03;13.70;99.90
4509;DHT22;2267;48.816;9.230;2023-02-24T13:14:37;13.60;99.90
4509;DHT22;2267;48.816;9.230;2023-02-24T13:19:41;13.40;99.90
4509;DHT22;2267;48.816;9.230;2023-02-24T13:27:36;13.30;99.90
4509;DHT22;2267;48.816;9.230;2023-02-24T13:32:57;13.30;99.90
4509;DHT22;2267;48.816;9.230;2023-02-24T13:37:52;13.20;99.90
4509;DHT22;2267;48.816;9.230;2023-02-24T13:56:36;12.90;99.90
4509;DHT22;2267;48.816;9.230;2023-02-24T14:04:34;12.80;99.90
4509;DHT22;2267;48.816;9.230;2023-02-24T14:07:07;12.80;99.90
4509;DHT22;2267;48.816;9.230;2023-02-24T14:09:42;12.80;99.90
4509;DHT22;2267;48.816;9.230;2023-02-24T14:12:17;12.80;99.90
4509;DHT22;2267;48.816;9.230;2023-02-24T14:14:45;12.80;99.90
4509;DHT22;2267;48.816;9.230;2023-02-24T14:22:49;12.70;99.90
4509;DHT22;2267;48.816;9.230;2023-02-24T14:25:16;12.70;99.90
4509;DHT22;2267;48.816;9.230;2023-02-24T14:27:46;12.70;99.90
4509;DHT22;2267;48.816;9.230;2023-02-24T14:30:24;12.70;99.90
4509;DHT22;2267;48.816;9.230;2023-02-24T14:32:52;12.70;99.90
4509;DHT22;2267;48.816;9.230;2023-02-24T14:35:44;12.60;99.90
4509;DHT22;2267;48.816;9.230;2023-02-24T14:38:36;12.60;99.90
4509;DHT22;2267;48.816;9.230;2023-02-24T14:41:06;12.60;99.90
4509;DHT22;2267;48.816;9.230;2023-02-24T14:43:40;12.50;99.90
4509;DHT22;2267;48.816;9.230;2023-02-24T14:46:07;12.50;99.90
4509;DHT22;2267;48.816;9.230;2023-02-24T14:48:34;12.50;99.90
4509;DHT22;2267;48.816;9.230;2023-02-24T14:51:18;12.50;99.90
4509;DHT22;2267;48.816;9.230;2023-02-24T14:53:52;12.50;99.90
4509;DHT22;2267;48.816;9.230;2023-02-24T14:56:20;12.50;99.90
4509;DHT22;2267;48.816;9.230;2023-02-24T14:58:57;12.50;99.90
4509;DHT22;2267;48.816;9.230;2023-02-24T15:01:39;12.50;99.90
4509;DHT22;2267;48.816;9.230;2023-02-24T15:06:54;12.40;99.90
4509;DHT22;2267;48.816;9.230;2023-02-24T15:09:24;12.40;99.90
4509;DHT22;2267;48.816;9.230;2023-02-24T15:11:53;12.40;99.90
4509;DHT22;2267;48.816;9.230;2023-02-24T15:14:25;12.40;99.90
4509;DHT22;2267;48.816;9.230;2023-02-24T15:16:55;12.40;99.90
4509;DHT22;2267;48.816;9.230;2023-02-24T15:21:57;12.40;99.90
4509;DHT22;2267;48.816;9.230;2023-02-24T15:24:32;12.40;99.90
4509;DHT22;2267;48.816;9.230;2023-02-24T15:27:24;12.40;99.90
4509;DHT22;2267;48.816;9.230;2023-02-24T15:30:34;12.40;99.90
4509;DHT22;2267;48.816;9.230;2023-02-24T15:33:22;12.40;99.90
4509;DHT22;2267;48.816;9.230;2023-02-24T15:35:53;12.40;99.90
4509;DHT22;2267;48.816;9.230;2023-02-24T15:38:23;12.40;99.90
4509;DHT22;2267;48.816;9.230;2023-02-24T15:40:59;12.40;99.90
4509;DHT22;2267;48.816;9.230;2023-02-24T15:46:29;12.30;99.90
4509;DHT22;2267;48.816;9.230;2023-02-24T15:48:57;12.40;99.90
4509;DHT22;2267;48.816;9.230;2023-02-24T15:51:37;12.40;99.90
4509;DHT22;2267;48.816;9.230;2023-02-24T15:54:09;12.30;99.90
4509;DHT22;2267;48.816;9.230;2023-02-24T15:56:36;12.30;99.90
4509;DHT22;2267;48.816;9.230;2023-02-24T15:59:03;12.30;99.90
4509;DHT22;2267;48.816;9.230;2023-02-24T16:01:32;12.30;99.90
4509;DHT22;2267;48.816;9.230;2023-02-24T16:03:59;12.30;99.90
4509;DHT22;2267;48.816;9.230;2023-02-24T16:06:27;12.30;99.90
4509;DHT22;2267;48.816;9.230;2023-02-24T16:08:54;12.30;99.90
4509;DHT22;2267;48.816;9.230;2023-02-24T16:11:26;12.20;99.90
4509;DHT22;2267;48.816;9.230;2023-02-24T16:14:03;12.20;99.90
4509;DHT22;2267;48.816;9.230;2023-02-24T16:16:30;12.20;99.90
4509;DHT22;2267;48.816;9.230;2023-02-24T16:19:14;12.10;99.90
4509;DHT22;2267;48.816;9.230;2023-02-24T16:21:41;12.20;99.90
4509;DHT22;2267;48.816;9.230;2023-02-24T16:24:08;12.10;99.90
4509;DHT22;2267;48.816;9.230;2023-02-24T16:26:38;12.20;99.90
4509;DHT22;2267;48.816;9.230;2023-02-24T16:29:05;12.10;99.90
4509;DHT22;2267;48.816;9.230;2023-02-24T16:31:38;12.20;99.90
4509;DHT22;2267;48.816;9.230;2023-02-24T16:34:06;12.10;99.90
4509;DHT22;2267;48.816;9.230;2023-02-24T16:36:33;12.10;99.90
4509;DHT22;2267;48.816;9.230;2023-02-24T16:39:01;12.10;99.90
4509;DHT22;2267;48.816;9.230;2023-02-24T16:41:30;12.20;99.90
4509;DHT22;2267;48.816;9.230;2023-02-24T16:43:57;12.10;99.90
4509;DHT22;2267;48.816;9.230;2023-02-24T16:46:25;12.10;99.90
4509;DHT22;2267;48.816;9.230;2023-02-24T16:48:55;12.10;99.90
4509;DHT22;2267;48.816;9.230;2023-02-24T16:51:21;12.10;99.90
4509;DHT22;2267;48.816;9.230;2023-02-24T16:53:48;12.10;99.90
4509;DHT22;2267;48.816;9.230;2023-02-24T16:56:15;12.10;99.90
4509;DHT22;2267;48.816;9.230;2023-02-24T16:58:42;12.10;99.90
4509;DHT22;2267;48.816;9.230;2023-02-24T17:01:15;12.10;99.90
4509;DHT22;2267;48.816;9.230;2023-02-24T17:03:45;12.10;99.90
4509;DHT22;2267;48.816;9.230;2023-02-24T17:06:12;12.10;99.90
4509;DHT22;2267;48.816;9.230;2023-02-24T17:08:40;12.00;99.90
4509;DHT22;2267;48.816;9.230;2023-02-24T17:11:13;12.00;99.90
4509;DHT22;2267;48.816;9.230;2023-02-24T17:13:41;11.90;99.90
4509;DHT22;2267;48.816;9.230;2023-02-24T17:16:08;11.90;99.90
4509;DHT22;2267;48.816;9.230;2023-02-24T17:18:35;11.90;99.90
4509;DHT22;2267;48.816;9.230;2023-02-24T17:21:03;11.90;99.90
4509;DHT22;2267;48.816;9.230;2023-02-24T17:23:30;11.80;99.90
4509;DHT22;2267;48.816;9.230;2023-02-24T17:26:00;11.80;99.90
4509;DHT22;2267;48.816;9.230;2023-02-24T17:28:27;11.80;99.90
4509;DHT22;2267;48.816;9.230;2023-02-24T17:30:54;11.80;99.90
4509;DHT22;2267;48.816;9.230;2023-02-24T17:33:21;11.80;99.90
4509;DHT22;2267;48.816;9.230;2023-02-24T17:35:48;11.80;99.90
4509;DHT22;2267;48.816;9.230;2023-02-24T17:38:17;11.80;99.90
4509;DHT22;2267;48.816;9.230;2023-02-24T17:40:45;11.70;99.90
4509;DHT22;2267;48.816;9.230;2023-02-24T17:43:12;11.70;99.90
4509;DHT22;2267;48.816;9.230;2023-02-24T17:45:40;11.70;99.90
4509;DHT22;2267;48.816;9.230;2023-02-24T17:48:12;11.60;99.90
4509;DHT22;2267;48.816;9.230;2023-02-24T17:50:45;11.70;99.90
4509;DHT22;2267;48.816;9.230;2023-02-24T17:53:13;11.60;99.90
4509;DHT22;2267;48.816;9.230;2023-02-24T17:55:40;11.60;99.90
4509;DHT22;2267;48.816;9.230;2023-02-24T17:58:25;11.60;99.90
4509;DHT22;2267;48.816;9.230;2023-02-24T18:00:52;11.60;99.90
4509;DHT22;2267;48.816;9.230;2023-02-24T18:03:19;11.60;99.90
4509;DHT22;2267;48.816;9.230;2023-02-24T18:05:46;11.60;99.90
4509;DHT22;2267;48.816;9.230;2023-02-24T18:08:12;11.50;99.90
4509;DHT22;2267;48.816;9.230;2023-02-24T18:10:40;11.50;99.90
4509;DHT22;2267;48.816;9.230;2023-02-24T18:13:06;11.60;99.90
4509;DHT22;2267;48.816;9.230;2023-02-24T18:15:33;11.60;99.90
4509;DHT22;2267;48.816;9.230;2023-02-24T18:18:00;11.60;99.90
4509;DHT22;2267;48.816;9.230;2023-02-24T18:20:27;11.50;99.90
4509;DHT22;2267;48.816;9.230;2023-02-24T18:22:55;11.50;99.90
4509;DHT22;2267;48.816;9.230;2023-02-24T18:25:22;11.60;99.90
4509;DHT22;2267;48.816;9.230;2023-02-24T18:27:49;11.50;99.90
4509;DHT22;2267;48.816;9.230;2023-02-24T18:30:16;11.50;99.90
4509;DHT22;2267;48.816;9.230;2023-02-24T18:32:44;11.60;99.90
4509;DHT22;2267;48.816;9.230;2023-02-24T18:35:12;11.50;99.90
4509;DHT22;2267;48.816;9.230;2023-02-24T18:37:40;11.50;99.90
4509;DHT22;2267;48.816;9.230;2023-02-24T18:40:09;11.50;99.90
4509;DHT22;2267;48.816;9.230;2023-02-24T18:42:36;11.50;99.90
4509;DHT22;2267;48.816;9.230;2023-02-24T18:45:04;11.40;99.90
4509;DHT22;2267;48.816;9.230;2023-02-24T18:47:32;11.50;99.90
4509;DHT22;2267;48.816;9.230;2023-02-24T18:49:59;11.50;99.90
4509;DHT22;2267;48.816;9.230;2023-02-24T18:52:26;11.40;99.90
4509;DHT22;2267;48.816;9.230;2023-02-24T18:54:52;11.50;99.90
4509;DHT22;2267;48.816;9.230;2023-02-24T18:57:20;11.50;99.90
4509;DHT22;2267;48.816;9.230;2023-02-24T18:59:50;11.50;99.90
4509;DHT22;2267;48.816;9.230;2023-02-24T19:02:17;11.40;99.90
4509;DHT22;2267;48.816;9.230;2023-02-24T19:04:44;11.40;99.90
4509;DHT22;2267;48.816;9.230;2023-02-24T19:07:11;11.40;99.90
4509;DHT22;2267;48.816;9.230;2023-02-24T19:09:38;11.40;99.90
4509;DHT22;2267;48.816;9.230;2023-02-24T19:12:07;11.40;99.90